createdAt,value
2023-03-29T00:00:31.329Z,20.41
2023-03-29T00:01:35.689Z,20.41
2023-03-29T00:02:32.389Z,20.37
2023-03-29T00:03:31.372Z,20.38
2023-03-29T00:04:31.411Z,20.38
2023-03-29T00:05:31.307Z,20.41
2023-03-29T00:06:31.298Z,20.38
2023-03-29T00:07:31.306Z,20.39
2023-03-29T00:08:31.316Z,20.43
2023-03-29T00:09:31.272Z,20.39
2023-03-29T00:10:31.278Z,20.41
2023-03-29T00:11:31.263Z,20.43
2023-03-29T00:12:31.252Z,20.43
2023-03-29T00:13:31.246Z,20.41
2023-03-29T00:14:31.290Z,20.39
2023-03-29T00:15:31.330Z,20.39
2023-03-29T00:16:31.266Z,20.38
2023-03-29T00:17:31.256Z,20.39
2023-03-29T00:18:31.204Z,20.43
2023-03-29T00:19:31.228Z,20.41
2023-03-29T00:20:31.191Z,20.38
2023-03-29T00:21:31.190Z,20.38
2023-03-29T00:22:31.211Z,20.44
2023-03-29T00:23:31.215Z,20.44
2023-03-29T00:24:31.229Z,20.39
2023-03-29T00:25:31.236Z,20.44
2023-03-29T00:26:31.258Z,20.41
2023-03-29T00:27:31.230Z,20.42
2023-03-29T00:28:31.264Z,20.42
2023-03-29T00:29:31.294Z,20.39
2023-03-29T00:30:31.261Z,20.39
2023-03-29T00:31:31.319Z,20.45
2023-03-29T00:32:31.361Z,20.44
2023-03-29T00:33:31.308Z,20.44
2023-03-29T00:34:31.313Z,20.39
2023-03-29T00:35:31.372Z,20.51
2023-03-29T00:36:31.341Z,20.47
2023-03-29T00:37:31.344Z,20.48
2023-03-29T00:38:31.370Z,20.44
2023-03-29T00:39:31.407Z,20.45
2023-03-29T00:40:31.393Z,20.48
2023-03-29T00:41:31.419Z,20.47
2023-03-29T00:42:31.462Z,20.44
2023-03-29T00:43:31.454Z,20.39
2023-03-29T00:44:31.452Z,20.50
2023-03-29T00:45:31.466Z,20.45
2023-03-29T00:46:31.568Z,20.44
2023-03-29T00:47:31.522Z,20.48
2023-03-29T00:48:31.527Z,20.44
2023-03-29T00:49:31.531Z,20.48
2023-03-29T00:50:31.546Z,20.50
2023-03-29T00:51:31.554Z,20.47
2023-03-29T00:52:31.574Z,20.48
2023-03-29T00:53:31.614Z,20.50
2023-03-29T00:54:31.593Z,20.48
2023-03-29T00:55:31.627Z,20.53
2023-03-29T00:56:31.637Z,20.51
2023-03-29T00:57:31.731Z,20.51
2023-03-29T00:58:31.650Z,20.56
2023-03-29T00:59:31.704Z,20.51
2023-03-29T01:00:31.757Z,20.50
2023-03-29T01:01:31.711Z,20.51
2023-03-29T01:02:31.767Z,20.50
2023-03-29T01:03:31.779Z,20.51
2023-03-29T01:04:31.717Z,20.51
2023-03-29T01:05:31.738Z,20.50
2023-03-29T01:06:31.781Z,20.54
2023-03-29T01:07:31.767Z,20.54
2023-03-29T01:08:31.821Z,20.57
2023-03-29T01:09:31.762Z,20.56
2023-03-29T01:10:31.778Z,20.50
2023-03-29T01:11:31.817Z,20.51
2023-03-29T01:12:31.841Z,20.51
2023-03-29T01:13:31.836Z,20.60
2023-03-29T01:14:31.836Z,20.51
2023-03-29T01:15:31.893Z,20.56
2023-03-29T01:16:31.896Z,20.51
2023-03-29T01:17:31.966Z,20.54
2023-03-29T01:18:31.871Z,20.56
2023-03-29T01:19:31.907Z,20.51
2023-03-29T01:20:31.896Z,20.57
2023-03-29T01:21:31.910Z,20.59
2023-03-29T01:22:31.947Z,20.52
2023-03-29T01:23:31.976Z,20.54
2023-03-29T01:24:31.981Z,20.54
2023-03-29T01:25:31.985Z,20.57
2023-03-29T01:26:31.990Z,20.57
2023-03-29T01:27:32.017Z,20.60
2023-03-29T01:28:32.035Z,20.63
2023-03-29T01:29:32.032Z,20.54
2023-03-29T01:30:32.041Z,20.61
2023-03-29T01:31:32.109Z,20.57
2023-03-29T01:32:32.119Z,20.59
2023-03-29T01:33:32.100Z,20.59
2023-03-29T01:34:32.107Z,20.57
2023-03-29T01:35:32.144Z,20.57
2023-03-29T01:36:32.124Z,20.58
2023-03-29T01:37:32.148Z,20.57
2023-03-29T01:38:32.139Z,20.61
2023-03-29T01:39:32.161Z,20.59
2023-03-29T01:40:32.256Z,20.56
2023-03-29T01:41:32.188Z,20.60
2023-03-29T01:42:32.212Z,20.61
2023-03-29T01:43:32.206Z,20.61
2023-03-29T01:44:32.216Z,20.57
2023-03-29T01:45:32.249Z,20.63
2023-03-29T01:46:32.346Z,20.60
2023-03-29T01:47:32.370Z,20.58
2023-03-29T01:48:32.311Z,20.57
2023-03-29T01:49:32.325Z,20.60
2023-03-29T01:50:32.368Z,20.59
2023-03-29T01:51:32.368Z,20.55
2023-03-29T01:52:32.388Z,20.61
2023-03-29T01:53:32.436Z,20.63
2023-03-29T01:54:32.428Z,20.61
2023-03-29T01:55:32.425Z,20.58
2023-03-29T01:56:32.463Z,20.61
2023-03-29T01:57:32.522Z,20.59
2023-03-29T01:58:32.530Z,20.58
2023-03-29T01:59:32.521Z,20.63
2023-03-29T02:00:32.546Z,20.61
2023-03-29T02:01:32.717Z,20.67
2023-03-29T02:02:32.642Z,20.60
2023-03-29T02:03:32.669Z,20.60
2023-03-29T02:04:32.650Z,20.63
2023-03-29T02:05:32.650Z,20.57
2023-03-29T02:06:32.676Z,20.66
2023-03-29T02:07:32.697Z,20.61
2023-03-29T02:08:32.731Z,20.61
2023-03-29T02:09:32.763Z,20.63
2023-03-29T02:10:32.778Z,20.60
2023-03-29T02:11:32.771Z,20.66
2023-03-29T02:12:32.753Z,20.63
2023-03-29T02:13:32.826Z,20.61
2023-03-29T02:14:32.844Z,20.61
2023-03-29T02:15:32.867Z,20.63
2023-03-29T02:16:32.868Z,20.66
2023-03-29T02:17:32.926Z,20.66
2023-03-29T02:18:32.925Z,20.60
2023-03-29T02:19:32.949Z,20.65
2023-03-29T02:20:33.009Z,20.63
2023-03-29T02:21:32.990Z,20.66
2023-03-29T02:22:32.996Z,20.63
2023-03-29T02:23:33.018Z,20.64
2023-03-29T02:24:33.053Z,20.63
2023-03-29T02:25:33.081Z,20.67
2023-03-29T02:26:33.094Z,20.63
2023-03-29T02:27:33.086Z,20.60
2023-03-29T02:28:33.141Z,20.69
2023-03-29T02:29:33.151Z,20.66
2023-03-29T02:30:33.176Z,20.66
2023-03-29T02:31:33.272Z,20.66
2023-03-29T02:32:33.242Z,20.69
2023-03-29T02:33:33.258Z,20.61
2023-03-29T02:34:33.287Z,20.63
2023-03-29T02:35:33.369Z,20.67
2023-03-29T02:36:33.354Z,20.67
2023-03-29T02:37:33.364Z,20.58
2023-03-29T02:38:33.364Z,20.61
2023-03-29T02:39:33.396Z,20.67
2023-03-29T02:40:33.432Z,20.64
2023-03-29T02:41:33.435Z,20.64
2023-03-29T02:42:33.474Z,20.63
2023-03-29T02:43:33.475Z,20.72
2023-03-29T02:44:33.506Z,20.67
2023-03-29T02:45:33.532Z,20.69
2023-03-29T02:46:33.546Z,20.70
2023-03-29T02:47:33.611Z,20.67
2023-03-29T02:48:33.594Z,20.66
2023-03-29T02:49:33.602Z,20.64
2023-03-29T02:50:33.637Z,20.69
2023-03-29T02:51:33.664Z,20.69
2023-03-29T02:52:33.691Z,20.64
2023-03-29T02:53:33.694Z,20.67
2023-03-29T02:54:33.747Z,20.72
2023-03-29T02:55:33.747Z,20.70
2023-03-29T02:56:33.808Z,20.70
2023-03-29T02:57:33.811Z,20.67
2023-03-29T02:58:33.854Z,20.72
2023-03-29T02:59:33.853Z,20.75
2023-03-29T03:00:33.899Z,20.67
2023-03-29T03:01:33.953Z,20.69
2023-03-29T03:02:34.051Z,20.73
2023-03-29T03:03:34.141Z,20.75
2023-03-29T03:04:33.984Z,20.73
2023-03-29T03:05:33.997Z,20.73
2023-03-29T03:06:34.034Z,20.69
2023-03-29T03:07:34.066Z,20.72
2023-03-29T03:08:34.095Z,20.69
2023-03-29T03:09:34.136Z,20.73
2023-03-29T03:10:34.124Z,20.70
2023-03-29T03:11:34.155Z,20.73
2023-03-29T03:12:34.204Z,20.72
2023-03-29T03:13:34.227Z,20.69
2023-03-29T03:14:34.266Z,20.69
2023-03-29T03:15:34.264Z,20.75
2023-03-29T03:16:34.391Z,20.75
2023-03-29T03:17:34.364Z,20.75
2023-03-29T03:18:34.357Z,20.69
2023-03-29T03:19:34.355Z,20.70
2023-03-29T03:20:34.410Z,20.73
2023-03-29T03:21:34.429Z,20.73
2023-03-29T03:22:34.469Z,20.73
2023-03-29T03:23:34.511Z,20.72
2023-03-29T03:24:34.537Z,20.75
2023-03-29T03:25:34.595Z,20.75
2023-03-29T03:26:34.592Z,20.79
2023-03-29T03:27:34.641Z,20.79
2023-03-29T03:28:34.667Z,20.76
2023-03-29T03:29:34.689Z,20.73
2023-03-29T03:30:34.766Z,20.75
2023-03-29T03:31:34.799Z,20.79
2023-03-29T03:32:34.781Z,20.78
2023-03-29T03:33:34.819Z,20.79
2023-03-29T03:34:34.789Z,20.76
2023-03-29T03:35:34.876Z,20.78
2023-03-29T03:36:34.875Z,20.81
2023-03-29T03:37:34.889Z,20.76
2023-03-29T03:38:34.932Z,20.76
2023-03-29T03:39:34.961Z,20.81
2023-03-29T03:40:35.001Z,20.85
2023-03-29T03:41:35.001Z,20.79
2023-03-29T03:42:35.040Z,20.81
2023-03-29T03:43:35.073Z,20.75
2023-03-29T03:44:35.082Z,20.76
2023-03-29T03:45:35.159Z,20.75
2023-03-29T03:46:35.168Z,20.79
2023-03-29T03:47:35.225Z,20.78
2023-03-29T03:48:35.201Z,20.78
2023-03-29T03:49:35.242Z,20.84
2023-03-29T03:50:35.303Z,20.84
2023-03-29T03:51:35.276Z,20.84
2023-03-29T03:52:35.350Z,20.81
2023-03-29T03:53:35.366Z,20.84
2023-03-29T03:54:35.418Z,20.82
2023-03-29T03:55:35.419Z,20.81
2023-03-29T03:56:35.461Z,20.79
2023-03-29T03:57:35.505Z,20.79
2023-03-29T03:58:35.552Z,20.84
2023-03-29T03:59:35.566Z,20.81
2023-03-29T04:00:35.563Z,20.84
2023-03-29T04:01:35.688Z,20.82
2023-03-29T04:02:35.699Z,20.82
2023-03-29T04:03:35.741Z,20.87
2023-03-29T04:04:35.725Z,20.82
2023-03-29T04:05:35.757Z,20.88
2023-03-29T04:06:35.775Z,20.85
2023-03-29T04:07:35.823Z,20.85
2023-03-29T04:08:35.823Z,20.85
2023-03-29T04:09:35.877Z,20.85
2023-03-29T04:10:35.896Z,20.87
2023-03-29T04:11:35.899Z,20.90
2023-03-29T04:12:35.951Z,20.87
2023-03-29T04:13:35.958Z,20.91
2023-03-29T04:14:36.001Z,20.82
2023-03-29T04:15:36.048Z,20.91
2023-03-29T04:16:36.039Z,20.91
2023-03-29T04:17:36.153Z,20.87
2023-03-29T04:18:36.264Z,20.90
2023-03-29T04:19:36.126Z,20.91
2023-03-29T04:20:36.176Z,20.88
2023-03-29T04:21:36.195Z,20.90
2023-03-29T04:22:36.216Z,20.88
2023-03-29T04:23:36.286Z,20.91
2023-03-29T04:24:36.269Z,20.88
2023-03-29T04:25:36.300Z,20.93
2023-03-29T04:26:36.378Z,20.90
2023-03-29T04:27:36.367Z,20.88
2023-03-29T04:28:36.396Z,20.90
2023-03-29T04:29:36.417Z,20.93
2023-03-29T04:30:36.483Z,20.94
2023-03-29T04:31:36.549Z,20.91
2023-03-29T04:32:36.562Z,20.90
2023-03-29T04:33:36.580Z,20.93
2023-03-29T04:34:36.556Z,20.90
2023-03-29T04:35:36.636Z,20.97
2023-03-29T04:36:36.643Z,20.93
2023-03-29T04:37:36.672Z,20.93
2023-03-29T04:38:36.720Z,20.93
2023-03-29T04:39:37.317Z,20.93
2023-03-29T04:40:36.783Z,20.96
2023-03-29T04:41:36.801Z,20.94
2023-03-29T04:42:36.809Z,20.93
2023-03-29T04:43:37.846Z,20.91
2023-03-29T04:44:36.918Z,20.93
2023-03-29T04:45:36.812Z,20.97
2023-03-29T04:46:36.902Z,20.94
2023-03-29T04:47:36.850Z,20.97
2023-03-29T04:48:36.804Z,21.00
2023-03-29T04:49:36.794Z,20.96
2023-03-29T04:50:36.786Z,21.02
2023-03-29T04:51:36.794Z,20.99
2023-03-29T04:52:36.788Z,20.97
2023-03-29T04:53:36.770Z,21.02
2023-03-29T04:54:36.769Z,21.00
2023-03-29T04:55:36.769Z,20.96
2023-03-29T04:56:36.775Z,20.97
2023-03-29T04:57:36.748Z,21.03
2023-03-29T04:58:36.765Z,21.00
2023-03-29T04:59:36.735Z,21.00
2023-03-29T05:00:43.736Z,20.99
2023-03-29T05:01:36.778Z,21.00
2023-03-29T05:02:36.803Z,20.97
2023-03-29T05:03:36.712Z,21.00
2023-03-29T05:04:36.817Z,21.04
2023-03-29T05:05:36.725Z,21.03
2023-03-29T05:06:36.713Z,21.02
2023-03-29T05:07:36.698Z,21.02
2023-03-29T05:08:36.682Z,21.00
2023-03-29T05:09:36.690Z,21.06
2023-03-29T05:10:36.659Z,21.03
2023-03-29T05:11:36.660Z,21.04
2023-03-29T05:12:36.672Z,21.00
2023-03-29T05:13:36.673Z,21.08
2023-03-29T05:14:36.640Z,21.06
2023-03-29T05:15:36.666Z,21.06
2023-03-29T05:17:55.670Z,21.09
2023-03-29T05:18:55.634Z,21.12
2023-03-29T05:19:55.675Z,21.15
2023-03-29T05:20:55.700Z,21.11
2023-03-29T05:21:55.774Z,21.14
2023-03-29T05:22:55.823Z,21.14
2023-03-29T05:23:55.886Z,21.17
2023-03-29T05:24:55.897Z,21.15
2023-03-29T05:25:55.959Z,21.12
2023-03-29T05:26:55.993Z,21.18
2023-03-29T05:27:56.024Z,21.14
2023-03-29T05:28:56.096Z,21.12
2023-03-29T05:29:56.126Z,21.12
2023-03-29T05:30:56.154Z,21.17
2023-03-29T05:31:56.257Z,21.11
2023-03-29T05:32:56.265Z,21.26
2023-03-29T05:33:56.310Z,21.27
2023-03-29T05:34:56.323Z,21.39
2023-03-29T05:35:56.399Z,21.41
2023-03-29T05:36:56.384Z,21.39
2023-03-29T05:37:56.497Z,21.42
2023-03-29T05:38:56.516Z,21.48
2023-03-29T05:40:05.617Z,21.53
2023-03-29T05:40:57.547Z,21.63
2023-03-29T05:41:56.568Z,21.71
2023-03-29T05:42:56.580Z,21.95
2023-03-29T05:43:56.720Z,22.01
2023-03-29T05:44:56.608Z,22.19
2023-03-29T05:46:03.637Z,22.33
2023-03-29T05:46:57.581Z,22.63
2023-03-29T05:47:56.610Z,23.37
2023-03-29T05:48:56.771Z,23.04
2023-03-29T05:49:56.523Z,23.10
2023-03-29T05:50:56.517Z,23.14
2023-03-29T05:51:56.480Z,23.09
2023-03-29T05:52:56.516Z,23.19
2023-03-29T05:53:56.467Z,23.09
2023-03-29T05:54:56.464Z,23.06
2023-03-29T05:55:56.469Z,23.11
2023-03-29T05:56:56.509Z,23.12
2023-03-29T05:57:56.473Z,23.13
2023-03-29T05:58:56.440Z,23.19
2023-03-29T05:59:56.442Z,23.31
2023-03-29T06:00:56.446Z,23.32
2023-03-29T06:01:56.511Z,23.31
2023-03-29T06:03:01.316Z,23.33
2023-03-29T06:03:57.542Z,23.42
2023-03-29T06:04:56.758Z,23.69
2023-03-29T06:05:56.420Z,23.67
2023-03-29T06:06:56.372Z,23.89
2023-03-29T06:07:56.606Z,23.90
2023-03-29T06:08:56.348Z,23.90
2023-03-29T06:09:56.410Z,24.16
2023-03-29T06:10:56.333Z,24.19
2023-03-29T06:11:56.443Z,24.34
2023-03-29T06:12:56.381Z,24.43
2023-03-29T06:13:56.321Z,24.44
2023-03-29T06:14:56.298Z,24.49
2023-03-29T06:15:56.358Z,24.55
2023-03-29T06:16:56.330Z,24.46
2023-03-29T06:17:56.429Z,24.51
2023-03-29T06:18:56.299Z,24.62
2023-03-29T06:19:56.383Z,24.72
2023-03-29T06:20:56.320Z,24.73
2023-03-29T06:21:56.282Z,24.72
2023-03-29T06:22:56.298Z,24.78
2023-03-29T06:23:56.317Z,24.76
2023-03-29T06:24:56.771Z,24.81
2023-03-29T06:25:56.318Z,24.81
2023-03-29T06:26:56.266Z,24.92
2023-03-29T06:27:56.263Z,24.94
2023-03-29T06:28:56.267Z,25.02
2023-03-29T06:29:56.758Z,25.04
2023-03-29T06:30:56.466Z,25.06
2023-03-29T06:31:56.228Z,25.12
2023-03-29T06:32:56.293Z,25.15
2023-03-29T06:33:56.220Z,25.32
2023-03-29T06:34:56.200Z,25.29
2023-03-29T06:35:56.231Z,24.68
2023-03-29T06:36:56.197Z,24.75
2023-03-29T06:37:56.194Z,24.46
2023-03-29T06:38:56.212Z,24.11
2023-03-29T06:39:56.240Z,24.09
2023-03-29T06:40:56.158Z,24.11
2023-03-29T06:41:56.141Z,24.19
2023-03-29T06:42:56.181Z,24.11
2023-03-29T06:43:56.128Z,24.15
2023-03-29T06:44:56.307Z,24.53
2023-03-29T06:45:56.153Z,24.32
2023-03-29T06:46:56.173Z,24.24
2023-03-29T06:47:56.339Z,24.27
2023-03-29T06:48:56.215Z,24.12
2023-03-29T06:49:56.124Z,23.96
2023-03-29T06:50:56.111Z,24.21
2023-03-29T06:51:56.130Z,24.09
2023-03-29T06:52:56.127Z,24.07
2023-03-29T06:53:56.159Z,23.95
2023-03-29T06:54:56.162Z,24.04
2023-03-29T06:55:56.154Z,23.88
2023-03-29T06:56:56.193Z,23.92
2023-03-29T06:57:56.128Z,23.97
2023-03-29T06:58:56.145Z,23.88
2023-03-29T06:59:56.148Z,23.99
2023-03-29T07:00:56.132Z,23.99
2023-03-29T07:01:56.174Z,23.89
2023-03-29T07:02:56.242Z,23.89
2023-03-29T07:03:56.191Z,23.93
2023-03-29T07:04:56.246Z,23.75
2023-03-29T07:05:56.224Z,23.74
2023-03-29T07:06:56.206Z,23.65
2023-03-29T07:07:56.239Z,23.75
2023-03-29T07:08:56.237Z,23.73
2023-03-29T07:09:56.232Z,23.75
2023-03-29T07:10:56.258Z,23.85
2023-03-29T07:11:56.265Z,23.76
2023-03-29T07:12:56.338Z,24.08
2023-03-29T07:13:56.336Z,23.69
2023-03-29T07:14:56.754Z,23.70
2023-03-29T07:15:56.504Z,23.66
2023-03-29T07:16:56.398Z,23.48
2023-03-29T07:17:56.420Z,23.39
2023-03-29T07:18:56.471Z,23.50
2023-03-29T07:19:56.460Z,23.52
2023-03-29T07:20:56.500Z,23.45
2023-03-29T07:21:56.500Z,23.45
2023-03-29T07:22:56.541Z,23.46
2023-03-29T07:23:56.560Z,23.50
2023-03-29T07:24:56.561Z,23.46
2023-03-29T07:25:56.596Z,23.45
2023-03-29T07:27:04.243Z,23.45
2023-03-29T07:27:57.598Z,23.38
2023-03-29T07:28:56.571Z,23.33
2023-03-29T07:29:56.592Z,23.37
2023-03-29T07:30:56.590Z,23.40
2023-03-29T07:31:56.556Z,23.35
2023-03-29T07:32:56.628Z,23.37
2023-03-29T07:33:56.651Z,23.30
2023-03-29T07:34:56.572Z,23.33
2023-03-29T07:35:56.540Z,23.27
2023-03-29T07:36:56.546Z,23.27
2023-03-29T07:37:56.528Z,23.26
2023-03-29T07:38:56.538Z,23.43
2023-03-29T07:39:56.517Z,23.54
2023-03-29T07:40:56.498Z,23.59
2023-03-29T07:41:56.538Z,23.60
2023-03-29T07:42:56.537Z,23.81
2023-03-29T07:43:56.468Z,23.78
2023-03-29T07:44:56.762Z,23.81
2023-03-29T07:45:56.489Z,23.97
2023-03-29T07:46:56.482Z,23.87
2023-03-29T07:47:56.608Z,23.79
2023-03-29T07:48:56.533Z,23.79
2023-03-29T07:49:56.527Z,23.83
2023-03-29T07:50:56.517Z,23.87
2023-03-29T07:51:56.542Z,23.91
2023-03-29T07:52:56.564Z,23.88
2023-03-29T07:53:56.613Z,23.92
2023-03-29T07:54:56.608Z,23.92
2023-03-29T07:55:56.575Z,23.93
2023-03-29T07:56:56.668Z,23.92
2023-03-29T07:57:56.627Z,24.02
2023-03-29T07:58:56.631Z,23.94
2023-03-29T07:59:56.609Z,24.01
2023-03-29T08:00:56.641Z,24.07
2023-03-29T08:01:56.593Z,24.02
2023-03-29T08:02:56.735Z,24.00
2023-03-29T08:03:56.793Z,24.01
2023-03-29T08:04:56.705Z,24.07
2023-03-29T08:05:56.640Z,24.04
2023-03-29T08:06:56.948Z,24.06
2023-03-29T08:07:56.632Z,24.14
2023-03-29T08:08:56.655Z,24.15
2023-03-29T08:09:56.624Z,24.18
2023-03-29T08:10:56.652Z,24.11
2023-03-29T08:11:56.657Z,24.20
2023-03-29T08:12:56.621Z,24.22
2023-03-29T08:13:56.630Z,24.23
2023-03-29T08:14:56.658Z,24.20
2023-03-29T08:15:56.625Z,24.24
2023-03-29T08:16:56.716Z,24.30
2023-03-29T08:17:56.739Z,24.33
2023-03-29T08:18:56.756Z,24.51
2023-03-29T08:19:56.925Z,24.48
2023-03-29T08:20:56.651Z,24.48
2023-03-29T08:21:56.580Z,24.47
2023-03-29T08:22:56.824Z,24.47
2023-03-29T08:23:56.596Z,24.53
2023-03-29T08:24:56.609Z,24.53
2023-03-29T08:25:56.613Z,24.53
2023-03-29T08:26:57.268Z,24.52
2023-03-29T08:27:57.627Z,24.48
2023-03-29T08:28:56.717Z,24.46
2023-03-29T08:29:56.643Z,24.56
2023-03-29T08:30:56.677Z,24.59
2023-03-29T08:31:56.629Z,24.48
2023-03-29T08:32:56.668Z,24.51
2023-03-29T08:33:56.649Z,24.61
2023-03-29T08:34:56.795Z,24.57
2023-03-29T08:35:56.796Z,24.55
2023-03-29T08:36:56.616Z,24.67
2023-03-29T08:37:56.619Z,24.59
2023-03-29T08:38:56.623Z,24.55
2023-03-29T08:39:56.624Z,24.77
2023-03-29T08:40:56.623Z,24.78
2023-03-29T08:41:56.621Z,24.84
2023-03-29T08:42:56.597Z,24.81
2023-03-29T08:43:56.631Z,24.85
2023-03-29T08:44:56.642Z,24.87
2023-03-29T08:45:56.642Z,24.87
2023-03-29T08:46:56.640Z,24.86
2023-03-29T08:47:56.661Z,25.00
2023-03-29T08:48:56.669Z,25.05
2023-03-29T08:49:56.678Z,25.09
2023-03-29T08:50:56.613Z,25.17
2023-03-29T08:51:56.614Z,25.20
2023-03-29T08:52:56.634Z,25.20
2023-03-29T08:53:56.598Z,25.15
2023-03-29T08:54:56.702Z,25.23
2023-03-29T08:55:56.610Z,25.12
2023-03-29T08:56:56.681Z,25.20
2023-03-29T08:57:57.203Z,25.33
2023-03-29T08:58:56.633Z,25.39
2023-03-29T08:59:56.597Z,25.42
2023-03-29T09:00:56.611Z,25.46
2023-03-29T09:01:56.634Z,25.51
2023-03-29T09:02:56.722Z,25.58
2023-03-29T09:03:57.357Z,25.58
2023-03-29T09:04:56.628Z,25.65
2023-03-29T09:05:56.686Z,25.69
2023-03-29T09:06:56.662Z,25.76
2023-03-29T09:07:56.693Z,25.76
2023-03-29T09:08:56.730Z,25.78
2023-03-29T09:09:56.762Z,25.98
2023-03-29T09:10:56.766Z,25.95
2023-03-29T09:11:56.755Z,26.12
2023-03-29T09:12:56.936Z,26.13
2023-03-29T09:13:56.843Z,26.13
2023-03-29T09:14:57.294Z,26.08
2023-03-29T09:15:56.947Z,26.13
2023-03-29T09:16:56.856Z,26.14
2023-03-29T09:17:56.929Z,26.10
2023-03-29T09:18:56.893Z,26.12
2023-03-29T09:19:56.934Z,26.02
2023-03-29T09:20:56.963Z,26.03
2023-03-29T09:21:56.972Z,26.08
2023-03-29T09:22:56.900Z,26.08
2023-03-29T09:23:56.900Z,26.01
2023-03-29T09:24:56.881Z,25.99
2023-03-29T09:25:56.923Z,25.96
2023-03-29T09:26:56.889Z,25.96
2023-03-29T09:27:56.876Z,25.97
2023-03-29T09:28:56.870Z,25.91
2023-03-29T09:29:56.872Z,25.94
2023-03-29T09:30:57.291Z,25.94
2023-03-29T09:31:56.983Z,25.90
2023-03-29T09:32:56.939Z,25.94
2023-03-29T09:33:56.871Z,25.94
2023-03-29T09:34:56.904Z,25.90
2023-03-29T09:35:56.989Z,25.90
2023-03-29T09:36:56.907Z,25.85
2023-03-29T09:37:56.905Z,25.85
2023-03-29T09:38:56.920Z,25.85
2023-03-29T09:39:56.906Z,25.93
2023-03-29T09:40:57.378Z,25.78
2023-03-29T09:41:56.926Z,25.83
2023-03-29T09:42:56.932Z,25.81
2023-03-29T09:43:56.966Z,25.76
2023-03-29T09:44:56.943Z,25.76
2023-03-29T09:45:56.976Z,25.75
2023-03-29T09:46:56.963Z,25.68
2023-03-29T09:47:57.095Z,25.65
2023-03-29T09:48:56.967Z,25.70
2023-03-29T09:49:56.995Z,25.63
2023-03-29T09:50:56.987Z,25.72
2023-03-29T09:51:57.028Z,25.70
2023-03-29T09:52:57.025Z,25.70
2023-03-29T09:53:57.057Z,25.68
2023-03-29T09:54:57.044Z,25.72
2023-03-29T09:55:57.079Z,25.67
2023-03-29T09:56:57.190Z,25.70
2023-03-29T09:57:57.124Z,25.60
2023-03-29T09:58:57.128Z,25.66
2023-03-29T09:59:57.106Z,25.60
2023-03-29T10:00:57.406Z,25.62
2023-03-29T10:01:57.165Z,25.60
2023-03-29T10:02:57.243Z,25.62
2023-03-29T10:03:57.223Z,25.60
2023-03-29T10:04:57.934Z,25.52
2023-03-29T10:05:57.378Z,25.52
2023-03-29T10:06:57.193Z,25.52
2023-03-29T10:07:57.224Z,25.52
2023-03-29T10:08:57.221Z,25.49
2023-03-29T10:09:57.230Z,25.33
2023-03-29T10:10:57.227Z,25.61
2023-03-29T10:11:57.227Z,25.53
2023-03-29T10:12:57.277Z,25.43
2023-03-29T10:13:57.281Z,25.43
2023-03-29T10:14:57.314Z,25.46
2023-03-29T10:15:57.304Z,25.45
2023-03-29T10:16:57.394Z,25.39
2023-03-29T10:17:57.398Z,25.76
2023-03-29T10:18:57.335Z,25.62
2023-03-29T10:19:57.368Z,25.43
2023-03-29T10:20:57.448Z,25.36
2023-03-29T10:21:57.410Z,25.31
2023-03-29T10:22:57.419Z,25.39
2023-03-29T10:23:57.425Z,25.28
2023-03-29T10:24:57.428Z,25.36
2023-03-29T10:25:57.560Z,25.29
2023-03-29T10:26:57.445Z,25.28
2023-03-29T10:27:57.460Z,25.25
2023-03-29T10:28:57.588Z,25.26
2023-03-29T10:29:57.515Z,25.26
2023-03-29T10:30:57.912Z,25.28
2023-03-29T10:31:57.537Z,25.24
2023-03-29T10:32:57.581Z,25.19
2023-03-29T10:33:57.537Z,25.15
2023-03-29T10:34:57.616Z,25.19
2023-03-29T10:35:57.895Z,25.15
2023-03-29T10:36:57.561Z,25.14
2023-03-29T10:37:57.562Z,25.09
2023-03-29T10:38:57.565Z,25.08
2023-03-29T10:39:57.572Z,25.07
2023-03-29T10:40:57.595Z,25.07
2023-03-29T10:41:57.598Z,25.08
2023-03-29T10:42:57.589Z,25.07
2023-03-29T10:43:57.592Z,25.07
2023-03-29T10:44:57.645Z,25.04
2023-03-29T10:45:57.638Z,25.03
2023-03-29T10:46:57.643Z,25.04
2023-03-29T10:47:57.714Z,25.00
2023-03-29T10:48:57.631Z,25.00
2023-03-29T10:49:57.660Z,24.97
2023-03-29T10:50:57.856Z,24.97
2023-03-29T10:51:57.668Z,25.00
2023-03-29T10:52:57.666Z,24.96
2023-03-29T10:53:57.692Z,24.96
2023-03-29T10:54:57.671Z,24.92
2023-03-29T10:55:57.676Z,24.93
2023-03-29T10:56:57.812Z,24.93
2023-03-29T10:57:57.693Z,24.92
2023-03-29T10:58:57.711Z,24.90
2023-03-29T10:59:57.672Z,24.90
2023-03-29T11:00:57.686Z,24.87
2023-03-29T11:01:57.746Z,24.87
2023-03-29T11:02:57.740Z,24.85
2023-03-29T11:03:57.748Z,24.81
2023-03-29T11:04:57.700Z,24.79
2023-03-29T11:05:57.724Z,24.81
2023-03-29T11:06:57.718Z,24.82
2023-03-29T11:07:57.739Z,24.82
2023-03-29T11:08:57.702Z,24.80
2023-03-29T11:09:57.710Z,24.81
2023-03-29T11:10:57.759Z,24.79
2023-03-29T11:12:08.535Z,24.79
2023-03-29T11:12:58.725Z,24.76
2023-03-29T11:13:59.885Z,24.81
2023-03-29T11:14:57.708Z,24.76
2023-03-29T11:15:57.729Z,24.77
2023-03-29T11:16:57.704Z,24.76
2023-03-29T11:17:57.733Z,24.72
2023-03-29T11:18:57.706Z,24.75
2023-03-29T11:19:57.700Z,24.76
2023-03-29T11:20:57.856Z,24.66
2023-03-29T11:21:57.680Z,24.66
2023-03-29T11:22:57.690Z,24.68
2023-03-29T11:23:57.726Z,24.66
2023-03-29T11:24:57.799Z,24.63
2023-03-29T11:25:57.904Z,24.71
2023-03-29T11:26:57.753Z,24.96
2023-03-29T11:27:57.730Z,24.92
2023-03-29T11:28:57.728Z,25.02
2023-03-29T11:29:57.743Z,25.02
2023-03-29T11:30:57.983Z,25.03
2023-03-29T11:31:57.827Z,25.00
2023-03-29T11:32:57.782Z,24.99
2023-03-29T11:33:57.745Z,24.93
2023-03-29T11:34:57.805Z,24.90
2023-03-29T11:35:57.852Z,24.89
2023-03-29T11:36:57.862Z,24.91
2023-03-29T11:37:57.773Z,24.92
2023-03-29T11:38:57.772Z,24.89
2023-03-29T11:39:57.744Z,24.85
2023-03-29T11:40:57.709Z,24.83
2023-03-29T11:41:57.757Z,24.89
2023-03-29T11:42:57.763Z,24.87
2023-03-29T11:43:57.759Z,24.82
2023-03-29T11:44:57.810Z,24.81
2023-03-29T11:45:57.755Z,24.86
2023-03-29T11:46:57.829Z,24.82
2023-03-29T11:47:57.790Z,24.79
2023-03-29T11:48:57.740Z,24.81
2023-03-29T11:49:57.755Z,24.81
2023-03-29T11:50:57.748Z,24.77
2023-03-29T11:51:57.764Z,24.77
2023-03-29T11:52:57.728Z,24.78
2023-03-29T11:53:57.720Z,24.75
2023-03-29T11:54:57.759Z,24.79
2023-03-29T11:55:57.762Z,24.69
2023-03-29T11:56:57.780Z,24.65
2023-03-29T11:57:57.744Z,24.65
2023-03-29T11:58:57.744Z,24.72
2023-03-29T11:59:57.710Z,24.64
2023-03-29T12:00:57.718Z,24.64
2023-03-29T12:01:57.712Z,24.62
2023-03-29T12:02:57.772Z,24.66
2023-03-29T12:03:57.740Z,24.64
2023-03-29T12:04:57.709Z,24.66
2023-03-29T12:05:57.718Z,24.60
2023-03-29T12:06:57.756Z,24.55
2023-03-29T12:07:57.665Z,24.55
2023-03-29T12:08:57.664Z,24.56
2023-03-29T12:09:57.740Z,24.48
2023-03-29T12:10:57.743Z,24.53
2023-03-29T12:11:57.755Z,24.46
2023-03-29T12:12:57.706Z,24.49
2023-03-29T12:13:57.731Z,24.48
2023-03-29T12:14:57.774Z,24.46
2023-03-29T12:15:57.761Z,24.43
2023-03-29T12:16:57.776Z,24.44
2023-03-29T12:17:57.778Z,24.38
2023-03-29T12:18:57.801Z,24.41
2023-03-29T12:19:57.846Z,24.41
2023-03-29T12:20:57.921Z,24.35
2023-03-29T12:21:57.909Z,24.33
2023-03-29T12:22:57.936Z,24.33
2023-03-29T12:23:57.988Z,24.31
2023-03-29T12:24:58.007Z,24.29
2023-03-29T12:25:58.123Z,24.30
2023-03-29T12:26:58.161Z,24.30
2023-03-29T12:27:58.175Z,24.33
2023-03-29T12:28:58.283Z,24.30
2023-03-29T12:29:58.311Z,24.27
2023-03-29T12:30:58.408Z,24.33
2023-03-29T12:31:58.455Z,24.29
2023-03-29T12:32:58.496Z,24.29
2023-03-29T12:33:58.524Z,24.27
2023-03-29T12:34:58.579Z,24.28
2023-03-29T12:35:58.693Z,24.30
2023-03-29T12:36:58.692Z,24.23
2023-03-29T12:37:58.764Z,24.31
2023-03-29T12:38:58.775Z,24.23
2023-03-29T12:39:58.828Z,24.31
2023-03-29T12:40:58.851Z,24.31
2023-03-29T12:41:58.930Z,24.27
2023-03-29T12:42:58.966Z,24.33
2023-03-29T12:43:59.004Z,24.30
2023-03-29T12:44:59.054Z,24.31
2023-03-29T12:45:59.155Z,24.33
2023-03-29T12:46:59.156Z,24.30
2023-03-29T12:47:59.335Z,24.33
2023-03-29T12:48:59.182Z,24.33
2023-03-29T12:49:59.246Z,24.28
2023-03-29T12:50:59.305Z,24.34
2023-03-29T12:51:59.304Z,24.33
2023-03-29T12:52:59.431Z,24.30
2023-03-29T12:53:59.377Z,24.31